createdAt,value
2023-05-01T00:01:09.901Z,52.5
2023-05-01T00:02:53.322Z,52.5
2023-05-01T00:04:36.698Z,52.6
2023-05-01T00:06:20.502Z,52.7
2023-05-01T00:08:03.751Z,52.7
2023-05-01T00:09:47.156Z,52.7
2023-05-01T00:11:30.556Z,52.8
2023-05-01T00:13:13.949Z,52.6
2023-05-01T00:14:57.345Z,52.7
2023-05-01T00:16:40.730Z,52.8
2023-05-01T00:18:24.166Z,52.8
2023-05-01T00:20:07.524Z,52.7
2023-05-01T00:23:34.000Z,52.8
2023-05-01T00:25:17.407Z,52.8
2023-05-01T00:27:00.800Z,52.9
2023-05-01T00:28:44.200Z,52.8
2023-05-01T00:30:27.671Z,52.8
2023-05-01T00:32:11.015Z,52.8
2023-05-01T00:33:54.417Z,52.8
2023-05-01T00:35:37.770Z,52.8
2023-05-01T00:37:21.214Z,52.8
2023-05-01T00:39:04.886Z,52.8
2023-05-01T00:40:48.330Z,52.8
2023-05-01T00:42:31.675Z,52.8
2023-05-01T00:44:15.132Z,52.7
2023-05-01T00:45:58.484Z,52.8
2023-05-01T00:47:41.949Z,52.7
2023-05-01T00:49:25.331Z,52.8
2023-05-01T00:51:08.741Z,52.8
2023-05-01T00:52:52.086Z,52.8
2023-05-01T00:56:18.529Z,52.8
2023-05-01T00:58:01.925Z,52.8
2023-05-01T00:59:45.450Z,52.8
2023-05-01T01:01:28.714Z,52.8
2023-05-01T01:03:12.107Z,52.8
2023-05-01T01:04:55.520Z,52.8
2023-05-01T01:06:38.994Z,52.8
2023-05-01T01:08:22.296Z,52.8
2023-05-01T01:10:05.695Z,52.8
2023-05-01T01:13:32.211Z,52.8
2023-05-01T01:15:15.561Z,52.8
2023-05-01T01:16:58.970Z,52.7
2023-05-01T01:18:42.354Z,52.7
2023-05-01T01:20:25.805Z,52.8
2023-05-01T01:22:09.151Z,52.8
2023-05-01T01:23:52.563Z,52.7
2023-05-01T01:25:35.925Z,52.7
2023-05-01T01:30:45.276Z,52.7
2023-05-01T01:32:28.590Z,52.8
2023-05-01T01:34:11.976Z,52.7
2023-05-01T01:37:38.793Z,52.7
2023-05-01T01:39:22.167Z,52.7
2023-05-01T01:41:05.641Z,52.8
2023-05-01T01:51:25.623Z,52.7
2023-05-01T01:53:09.037Z,52.8
2023-05-01T01:54:52.428Z,52.7
2023-05-01T01:56:35.815Z,52.7
2023-05-01T01:58:19.244Z,52.7
2023-05-01T02:00:02.602Z,52.7
2023-05-01T02:01:46.028Z,52.8
2023-05-01T02:03:29.702Z,52.7
2023-05-01T02:05:13.114Z,52.8
2023-05-01T02:06:56.516Z,52.7
2023-05-01T02:08:39.936Z,52.6
2023-05-01T02:10:23.377Z,52.6
2023-05-01T02:12:06.787Z,52.7
2023-05-01T02:13:50.080Z,52.7
2023-05-01T02:15:33.530Z,52.7
2023-05-01T02:17:16.901Z,52.7
2023-05-01T02:19:00.593Z,52.6
2023-05-01T02:20:43.977Z,52.7
2023-05-01T02:22:27.398Z,52.7
2023-05-01T02:24:10.812Z,52.7
2023-05-01T02:25:54.166Z,52.6
2023-05-01T02:27:37.561Z,52.6
2023-05-01T02:29:21.000Z,52.6
2023-05-01T02:31:04.441Z,52.7
2023-05-01T02:32:47.754Z,52.6
2023-05-01T02:34:31.454Z,52.6
2023-05-01T02:36:14.923Z,52.7
2023-05-01T02:37:58.260Z,52.6
2023-05-01T02:39:41.708Z,52.6
2023-05-01T02:41:25.102Z,52.5
2023-05-01T02:43:08.443Z,52.6
2023-05-01T02:44:51.825Z,52.6
2023-05-01T02:46:35.281Z,52.6
2023-05-01T02:48:18.626Z,52.5
2023-05-01T02:51:45.101Z,52.6
2023-05-01T02:53:28.585Z,52.6
2023-05-01T02:55:11.906Z,52.5
2023-05-01T02:56:55.275Z,52.6
2023-05-01T02:58:38.717Z,52.6
2023-05-01T03:00:22.081Z,52.6
2023-05-01T03:02:05.529Z,52.6
2023-05-01T03:03:48.866Z,52.5
2023-05-01T03:08:58.119Z,52.5
2023-05-01T03:10:41.578Z,52.5
2023-05-01T03:12:24.910Z,52.4
2023-05-01T03:14:08.308Z,52.4
2023-05-01T03:15:51.758Z,52.5
2023-05-01T03:17:35.101Z,52.5
2023-05-01T03:19:18.499Z,52.5
2023-05-01T03:21:02.023Z,52.4
2023-05-01T03:24:28.611Z,52.4
2023-05-01T03:26:11.780Z,52.4
2023-05-01T03:27:55.152Z,52.4
2023-05-01T03:29:38.558Z,52.3
2023-05-01T03:31:21.940Z,52.3
2023-05-01T03:33:05.359Z,52.3
2023-05-01T03:34:48.738Z,52.3
2023-05-01T03:36:32.130Z,52.3
2023-05-01T03:38:15.541Z,52.3
2023-05-01T03:39:59.249Z,52.3
2023-05-01T03:41:42.622Z,52.3
2023-05-01T03:43:26.139Z,52.3
2023-05-01T03:45:09.448Z,52.3
2023-05-01T03:46:52.854Z,52.3
2023-05-01T03:48:36.253Z,52.3
2023-05-01T03:50:19.624Z,52.3
2023-05-01T03:52:03.014Z,52.3
2023-05-01T03:57:12.245Z,52.2
2023-05-01T03:58:55.663Z,52.2
2023-05-01T04:00:39.064Z,52.2
2023-05-01T04:02:22.441Z,52.2
2023-05-01T04:04:05.828Z,52.2
2023-05-01T04:05:49.304Z,52.2
2023-05-01T04:07:32.635Z,52.2
2023-05-01T04:09:16.029Z,52.2
2023-05-01T04:10:59.743Z,52.2
2023-05-01T04:12:43.235Z,52.2
2023-05-01T04:14:26.543Z,52.2
2023-05-01T04:16:09.918Z,52.1
2023-05-01T04:17:53.384Z,52.2
2023-05-01T04:19:36.746Z,52.2
2023-05-01T04:21:20.212Z,52.2
2023-05-01T04:23:03.573Z,52.2
2023-05-01T04:26:29.970Z,52.1
2023-05-01T04:28:13.364Z,52.1
2023-05-01T04:29:56.822Z,52.1
2023-05-01T04:31:40.231Z,52.1
2023-05-01T04:33:23.569Z,52.1
2023-05-01T04:35:07.008Z,52.1
2023-05-01T04:36:50.396Z,52.1
2023-05-01T04:38:33.865Z,52.1
2023-05-01T04:42:00.289Z,52.1
2023-05-01T04:43:43.664Z,52
2023-05-01T04:45:27.023Z,52
2023-05-01T04:47:10.441Z,52.1
2023-05-01T04:48:53.816Z,52.1
2023-05-01T04:50:37.223Z,52
2023-05-01T04:52:20.663Z,52
2023-05-01T04:54:04.025Z,52
2023-05-01T04:55:47.734Z,52
2023-05-01T04:57:31.113Z,52
2023-05-01T04:59:14.579Z,52
2023-05-01T05:00:57.899Z,52
2023-05-01T05:02:41.301Z,52
2023-05-01T05:04:24.735Z,52
2023-05-01T05:06:08.104Z,52
2023-05-01T05:07:51.489Z,52
2023-05-01T05:11:18.000Z,52
2023-05-01T05:13:01.355Z,52
2023-05-01T05:14:44.758Z,52
2023-05-01T05:16:28.136Z,52
2023-05-01T05:18:11.583Z,52
2023-05-01T05:19:54.950Z,52
2023-05-01T05:21:38.359Z,52
2023-05-01T05:23:21.980Z,52
2023-05-01T05:26:48.271Z,52
2023-05-01T05:28:31.599Z,52
2023-05-01T05:30:15.131Z,52
2023-05-01T05:31:58.414Z,52
2023-05-01T05:33:41.789Z,51.9
2023-05-01T05:35:25.178Z,52
2023-05-01T05:37:08.583Z,51.9
2023-05-01T05:38:51.990Z,51.9
2023-05-01T05:42:18.480Z,51.9
2023-05-01T05:44:01.840Z,51.9
2023-05-01T05:45:45.253Z,51.9
2023-05-01T05:47:28.706Z,51.9
2023-05-01T05:49:12.107Z,51.9
2023-05-01T05:50:55.533Z,51.9
2023-05-01T05:52:38.843Z,51.9
2023-05-01T05:54:22.271Z,51.9
2023-05-01T05:59:31.463Z,51.9
2023-05-01T06:01:14.874Z,51.9
2023-05-01T06:02:58.289Z,51.9
2023-05-01T06:04:41.712Z,51.9
2023-05-01T06:06:25.055Z,51.9
2023-05-01T06:08:08.451Z,51.9
2023-05-01T06:09:51.983Z,51.9
2023-05-01T06:11:35.241Z,51.9
2023-05-01T06:15:01.791Z,51.9
2023-05-01T06:16:45.120Z,51.9
2023-05-01T06:18:28.577Z,51.8
2023-05-01T06:20:11.971Z,51.9
2023-05-01T06:21:55.317Z,51.9
2023-05-01T06:23:38.698Z,52
2023-05-01T06:25:22.112Z,52
2023-05-01T06:27:05.484Z,52
2023-05-01T06:30:31.957Z,52.1
2023-05-01T06:32:15.443Z,51.9
2023-05-01T06:33:58.787Z,51.8
2023-05-01T06:35:42.152Z,51.8
2023-05-01T06:37:25.547Z,51.8
2023-05-01T06:39:08.931Z,51.7
2023-05-01T06:40:52.379Z,52.1
2023-05-01T06:42:35.731Z,51.9
2023-05-01T06:47:44.979Z,52.2
2023-05-01T06:49:28.369Z,52.2
2023-05-01T06:51:11.810Z,52.3
2023-05-01T06:52:55.223Z,52.4
2023-05-01T06:54:38.564Z,52.4
2023-05-01T06:56:22.047Z,52.3
2023-05-01T06:58:05.358Z,52.4
2023-05-01T06:59:48.735Z,52.3
2023-05-01T07:04:57.982Z,52.3
2023-05-01T07:06:41.380Z,52.3
2023-05-01T07:08:24.778Z,52.3
2023-05-01T07:10:08.258Z,52.3
2023-05-01T07:11:51.566Z,52.3
2023-05-01T07:13:35.026Z,52.3
2023-05-01T07:15:18.353Z,52.3
2023-05-01T07:17:01.746Z,52.2
2023-05-01T07:20:28.240Z,52.2
2023-05-01T07:22:11.628Z,52.2
2023-05-01T07:23:55.054Z,52.2
2023-05-01T07:25:38.440Z,52.2
2023-05-01T07:27:21.866Z,52.2
2023-05-01T07:29:05.212Z,52.2
2023-05-01T07:30:48.685Z,52.2
2023-05-01T07:32:32.008Z,52.2
2023-05-01T07:35:58.485Z,52.2
2023-05-01T07:37:41.909Z,52.2
2023-05-01T07:39:25.274Z,52.1
2023-05-01T07:41:08.781Z,52.1
2023-05-01T07:42:52.110Z,52.2
2023-05-01T07:44:35.463Z,52.1
2023-05-01T07:46:18.929Z,52.2
2023-05-01T07:48:02.290Z,52.2
2023-05-01T07:51:28.734Z,52.2
2023-05-01T07:53:12.111Z,52.2
2023-05-01T07:54:55.567Z,52.2
2023-05-01T07:56:38.929Z,52.2
2023-05-01T07:58:22.359Z,52.2
2023-05-01T08:00:05.840Z,52.2
2023-05-01T08:01:49.164Z,52.2
2023-05-01T08:03:32.499Z,52.1
2023-05-01T08:06:59.010Z,52.2
2023-05-01T08:08:42.381Z,52.1
2023-05-01T08:10:25.761Z,52.3
2023-05-01T08:12:09.159Z,52.2
2023-05-01T08:13:52.642Z,52.2
2023-05-01T08:15:35.978Z,52.2
2023-05-01T08:17:19.410Z,52.4
2023-05-01T08:19:02.765Z,52.5
2023-05-01T08:22:29.224Z,52.6
2023-05-01T08:24:12.680Z,52.8
2023-05-01T08:25:56.044Z,53
2023-05-01T08:27:39.414Z,53
2023-05-01T08:29:22.860Z,52.8
2023-05-01T08:31:06.212Z,52.8
2023-05-01T08:32:49.645Z,52.8
2023-05-01T08:34:33.001Z,52.8
2023-05-01T08:37:59.475Z,52.9
2023-05-01T08:39:42.965Z,52.8
2023-05-01T08:41:26.302Z,52.7
2023-05-01T08:43:09.706Z,52.5
2023-05-01T08:44:53.093Z,52.6
2023-05-01T08:46:36.511Z,52.7
2023-05-01T08:48:19.862Z,52.5
2023-05-01T08:50:03.322Z,52.5
2023-05-01T08:53:29.736Z,52.5
2023-05-01T08:55:13.124Z,52.5
2023-05-01T08:56:56.523Z,52.5
2023-05-01T08:58:39.970Z,52.5
2023-05-01T09:00:23.313Z,52.4
2023-05-01T09:02:06.744Z,52.4
2023-05-01T09:03:50.097Z,52.4
2023-05-01T09:05:33.498Z,52.4
2023-05-01T09:08:59.949Z,52.4
2023-05-01T09:10:43.364Z,52.4
2023-05-01T09:12:26.781Z,52.4
2023-05-01T09:14:10.154Z,52.4
2023-05-01T09:15:53.554Z,52.4
2023-05-01T09:17:36.953Z,52.3
2023-05-01T09:19:20.353Z,52.3
2023-05-01T09:21:03.855Z,52.3
2023-05-01T09:26:12.989Z,52.3
2023-05-01T09:27:56.383Z,52.2
2023-05-01T09:29:39.811Z,52.2
2023-05-01T09:31:23.159Z,52.2
2023-05-01T09:33:06.570Z,52.1
2023-05-01T09:34:50.013Z,52.1
2023-05-01T09:36:33.364Z,52
2023-05-01T09:38:16.779Z,52
2023-05-01T09:41:43.224Z,52.1
2023-05-01T09:43:26.739Z,52.4
2023-05-01T09:45:10.017Z,52.4
2023-05-01T09:46:53.483Z,52.2
2023-05-01T09:48:59.030Z,52.3
2023-05-01T09:50:20.210Z,52.2
2023-05-01T09:52:03.617Z,52.2
2023-05-01T09:53:47.025Z,52.3
2023-05-01T09:57:13.465Z,52.5
2023-05-01T09:58:56.992Z,52.8
2023-05-01T10:00:50.906Z,52.8
2023-05-01T10:02:23.856Z,52.8
2023-05-01T10:04:07.232Z,53
2023-05-01T10:05:50.526Z,53.1
2023-05-01T10:07:33.963Z,52.9
2023-05-01T10:09:17.427Z,52.9
2023-05-01T10:12:43.894Z,53
2023-05-01T10:14:27.308Z,52.8
2023-05-01T10:16:10.725Z,52.9
2023-05-01T10:17:54.097Z,53.1
2023-05-01T10:19:37.396Z,53.1
2023-05-01T10:21:20.724Z,53.2
2023-05-01T10:23:04.245Z,53.1
2023-05-01T10:24:47.698Z,52.9
2023-05-01T10:26:31.327Z,53
2023-05-01T10:28:14.839Z,53.2
2023-05-01T10:29:58.111Z,53.1
2023-05-01T10:31:41.380Z,53.3
2023-05-01T10:33:24.928Z,53.2
2023-05-01T10:35:08.382Z,53.2
2023-05-01T10:36:51.766Z,53.2
2023-05-01T10:38:35.129Z,53.4
2023-05-01T10:42:01.648Z,53.6
2023-05-01T10:43:45.004Z,53.5
2023-05-01T10:45:28.400Z,53.4
2023-05-01T10:47:11.873Z,53.4
2023-05-01T10:48:55.257Z,53.4
2023-05-01T10:50:38.627Z,53.5
2023-05-01T10:52:21.827Z,53.5
2023-05-01T10:55:48.326Z,53.6
2023-05-01T10:57:31.684Z,53.6
2023-05-01T10:59:15.132Z,53.6
2023-05-01T11:00:58.555Z,53.6
2023-05-01T11:02:42.021Z,53.7
2023-05-01T11:04:25.340Z,53.7
2023-05-01T11:06:08.760Z,53.7
2023-05-01T11:07:52.090Z,53.8
2023-05-01T11:11:18.522Z,53.9
2023-05-01T11:13:02.012Z,54
2023-05-01T11:14:45.427Z,53.9
2023-05-01T11:16:28.709Z,54.1
2023-05-01T11:18:12.172Z,53.9
2023-05-01T11:19:55.527Z,53.9
2023-05-01T11:21:38.901Z,53.8
2023-05-01T11:23:22.309Z,53.8
2023-05-01T11:25:06.097Z,53.8
2023-05-01T11:26:49.496Z,53.7
2023-05-01T11:28:32.806Z,53.7
2023-05-01T11:30:16.191Z,53.8
2023-05-01T11:31:59.596Z,53.7
2023-05-01T11:33:43.005Z,53.7
2023-05-01T11:35:26.448Z,53.6
2023-05-01T11:37:09.783Z,53.6
2023-05-01T11:40:36.258Z,53.7
2023-05-01T11:42:19.647Z,53.6
2023-05-01T11:44:03.095Z,53.6
2023-05-01T11:45:46.514Z,53.8
2023-05-01T11:47:41.737Z,53.6
2023-05-01T11:49:13.283Z,53.5
2023-05-01T11:50:56.635Z,53.5
2023-05-01T11:52:40.091Z,53.6
2023-05-01T11:56:06.530Z,53.6
2023-05-01T11:57:49.902Z,53.6
2023-05-01T11:59:33.318Z,53.5
2023-05-01T12:01:16.717Z,53.5
2023-05-01T12:03:00.092Z,53.5
2023-05-01T12:04:43.548Z,53.3
2023-05-01T12:06:26.917Z,53
2023-05-01T12:08:10.303Z,52.9
2023-05-01T12:09:54.018Z,52.8
2023-05-01T12:11:37.406Z,52.8
2023-05-01T12:13:20.864Z,52.7
2023-05-01T12:15:04.280Z,52.7
2023-05-01T12:16:47.590Z,52.8
2023-05-01T12:18:30.967Z,52.8
2023-05-01T12:20:14.361Z,52.7
2023-05-01T12:21:57.757Z,52.8
2023-05-01T12:23:41.465Z,52.8
2023-05-01T12:25:24.854Z,52.8
2023-05-01T12:27:08.349Z,52.8
2023-05-01T12:28:51.814Z,52.8
2023-05-01T12:30:35.146Z,52.8
2023-05-01T12:32:18.510Z,52.8
2023-05-01T12:34:01.850Z,52.8
2023-05-01T12:35:45.383Z,52.8
2023-05-01T12:39:11.866Z,52.8
2023-05-01T12:40:55.111Z,52.8
2023-05-01T12:42:38.500Z,52.8
2023-05-01T12:44:21.901Z,52.8
2023-05-01T12:46:05.353Z,52.8
2023-05-01T12:47:48.726Z,52.8
2023-05-01T12:49:32.118Z,52.8
2023-05-01T12:54:41.362Z,52.8
2023-05-01T12:56:24.726Z,52.8
2023-05-01T12:58:08.136Z,52.8
2023-05-01T12:59:51.690Z,52.8
2023-05-01T13:01:34.928Z,52.8
2023-05-01T13:03:18.323Z,52.8
2023-05-01T13:05:01.713Z,52.8
2023-05-01T13:10:11.047Z,52.9
2023-05-01T13:11:54.446Z,53.2
2023-05-01T13:13:37.778Z,53.1
2023-05-01T13:15:21.135Z,52.8
2023-05-01T13:17:04.560Z,52.5
2023-05-01T13:18:47.950Z,52.5
2023-05-01T13:20:31.354Z,52.5
2023-05-01T13:25:40.726Z,52.7
2023-05-01T13:27:23.978Z,52.5
2023-05-01T13:29:07.422Z,52.7
2023-05-01T13:30:50.837Z,52.8
2023-05-01T13:32:34.187Z,52.7
2023-05-01T13:34:17.549Z,52.6
2023-05-01T13:36:00.954Z,52.7
2023-05-01T13:37:44.332Z,52.7
2023-05-01T13:39:28.021Z,52.8
2023-05-01T13:41:11.521Z,52.9
2023-05-01T13:42:54.862Z,52.9
2023-05-01T13:44:38.224Z,53
2023-05-01T13:46:21.646Z,53.2
2023-05-01T13:48:05.015Z,53.2
2023-05-01T13:49:48.410Z,53
2023-05-01T13:54:57.776Z,53.1
2023-05-01T13:56:41.060Z,53
2023-05-01T13:58:24.580Z,53.1
2023-05-01T14:00:07.859Z,53.1
2023-05-01T14:01:51.271Z,53
2023-05-01T14:03:34.637Z,53.1
2023-05-01T14:05:18.139Z,53
2023-05-01T14:08:44.529Z,53.5
2023-05-01T14:10:27.901Z,53.7
2023-05-01T14:12:11.315Z,53.6
2023-05-01T14:13:54.701Z,53.8
2023-05-01T14:15:38.199Z,54.2
2023-05-01T14:17:21.573Z,54.6
2023-05-01T14:19:04.882Z,55.4
2023-05-01T14:20:48.272Z,56.1
2023-05-01T14:24:14.838Z,57
2023-05-01T14:25:58.145Z,57.2
2023-05-01T14:27:41.535Z,57.6
2023-05-01T14:29:25.034Z,58
2023-05-01T14:31:08.332Z,57.9
2023-05-01T14:32:51.752Z,58
2023-05-01T14:34:35.133Z,58.1
2023-05-01T14:38:01.721Z,58.2
2023-05-01T14:39:45.082Z,58.2
2023-05-01T14:41:28.471Z,58.7
2023-05-01T14:43:11.819Z,58.6
2023-05-01T14:44:55.209Z,58.5
2023-05-01T14:46:38.648Z,58.5
2023-05-01T14:48:22.002Z,58.5
2023-05-01T14:50:05.380Z,58.5
2023-05-01T14:51:49.078Z,58.4
2023-05-01T14:53:32.491Z,58.3
2023-05-01T14:55:16.093Z,58.3
2023-05-01T14:56:59.313Z,58.1
2023-05-01T14:58:42.681Z,57.9
2023-05-01T15:00:26.065Z,57.6
2023-05-01T15:02:09.458Z,57.5
2023-05-01T15:03:52.912Z,57.6
2023-05-01T15:05:36.616Z,57.5
2023-05-01T15:07:19.967Z,57.5
2023-05-01T15:09:03.367Z,57.5
2023-05-01T15:10:46.773Z,57.5
2023-05-01T15:12:30.178Z,57.5
2023-05-01T15:14:13.544Z,57.3
2023-05-01T15:15:56.952Z,57
2023-05-01T15:17:40.330Z,57
2023-05-01T15:19:24.059Z,56.9
2023-05-01T15:21:07.439Z,56.9
2023-05-01T15:22:50.845Z,57
2023-05-01T15:24:34.291Z,57
2023-05-01T15:26:17.739Z,57.1
2023-05-01T15:28:01.029Z,57
2023-05-01T15:29:44.410Z,57.2
2023-05-01T15:31:27.825Z,57.4
2023-05-01T15:33:11.530Z,57.5
2023-05-01T15:34:55.046Z,57.7
2023-05-01T15:36:38.380Z,57.7
2023-05-01T15:38:21.841Z,57.7
2023-05-01T15:40:05.117Z,57.8
2023-05-01T15:41:48.502Z,57.8
2023-05-01T15:43:31.911Z,57.8
2023-05-01T15:45:15.290Z,57.8
2023-05-01T15:46:59.028Z,57.8
2023-05-01T15:48:42.416Z,57.7
2023-05-01T15:50:25.817Z,57.8
2023-05-01T15:52:09.218Z,57.8
2023-05-01T15:53:52.605Z,57.6
2023-05-01T15:55:35.987Z,57.6
2023-05-01T15:57:19.405Z,57.6
2023-05-01T16:00:45.940Z,57.6
2023-05-01T16:02:29.236Z,57.6
2023-05-01T16:04:12.643Z,57.6
2023-05-01T16:05:56.045Z,57.5
2023-05-01T16:07:39.435Z,57.5
2023-05-01T16:09:22.843Z,57.5
2023-05-01T16:11:06.373Z,57.5
2023-05-01T16:14:32.710Z,57.4
2023-05-01T16:16:16.083Z,57.3
2023-05-01T16:17:59.506Z,57.3
2023-05-01T16:19:42.924Z,57.3
2023-05-01T16:21:26.375Z,57.2
2023-05-01T16:23:09.776Z,57.1
2023-05-01T16:24:53.095Z,57
2023-05-01T16:30:02.318Z,56.7
2023-05-01T16:31:45.705Z,56.6
2023-05-01T16:33:29.176Z,56.6
2023-05-01T16:35:12.492Z,56.6
2023-05-01T16:36:55.942Z,56.6
2023-05-01T16:38:39.279Z,56.7
2023-05-01T16:40:22.852Z,56.8
2023-05-01T16:43:49.163Z,56.8
2023-05-01T16:45:32.556Z,56.9
2023-05-01T16:47:16.040Z,57
2023-05-01T16:48:59.342Z,56.8
2023-05-01T16:50:42.739Z,56.9
2023-05-01T16:52:26.130Z,56.9
2023-05-01T16:54:09.525Z,57
2023-05-01T16:59:18.799Z,57
2023-05-01T17:01:02.206Z,57
2023-05-01T17:02:45.627Z,57
2023-05-01T17:04:28.991Z,57
2023-05-01T17:06:12.402Z,57
2023-05-01T17:07:55.822Z,57
2023-05-01T17:09:39.305Z,57
2023-05-01T17:11:22.550Z,57
2023-05-01T17:14:49.663Z,57
2023-05-01T17:16:33.059Z,57
2023-05-01T17:18:16.446Z,57
2023-05-01T17:19:59.857Z,57
2023-05-01T17:21:43.244Z,57
2023-05-01T17:23:26.790Z,57
2023-05-01T17:25:10.056Z,57
2023-05-01T17:28:36.647Z,57
2023-05-01T17:30:19.929Z,57
2023-05-01T17:32:03.352Z,57
2023-05-01T17:33:46.690Z,56.9
2023-05-01T17:35:30.137Z,56.9
2023-05-01T17:37:13.463Z,56.9
2023-05-01T17:38:56.992Z,56.9
2023-05-01T17:40:40.395Z,56.9
2023-05-01T17:42:24.054Z,56.9
2023-05-01T17:44:07.363Z,56.9
2023-05-01T17:45:50.791Z,56.9
2023-05-01T17:47:34.207Z,56.8
2023-05-01T17:49:17.608Z,56.8
2023-05-01T17:51:01.086Z,56.8
2023-05-01T17:52:44.366Z,56.8
2023-05-01T17:57:53.729Z,56.8
2023-05-01T17:59:36.992Z,56.8
2023-05-01T18:01:20.378Z,56.8
2023-05-01T18:03:03.792Z,56.8
2023-05-01T18:04:47.336Z,56.8
2023-05-01T18:06:30.675Z,56.8
2023-05-01T18:08:14.049Z,56.8
2023-05-01T18:11:40.640Z,56.8
2023-05-01T18:13:23.834Z,56.8
2023-05-01T18:15:07.347Z,56.9
2023-05-01T18:16:50.719Z,56.9
2023-05-01T18:18:34.044Z,56.8
2023-05-01T18:20:17.513Z,56.7
2023-05-01T18:22:00.809Z,56.1
2023-05-01T18:27:10.090Z,55.3
2023-05-01T18:28:53.446Z,55.4
2023-05-01T18:30:36.946Z,55.4
2023-05-01T18:32:20.266Z,55.5
2023-05-01T18:34:03.638Z,55.6
2023-05-01T18:35:47.084Z,55.7
2023-05-01T18:37:30.510Z,55.6
2023-05-01T18:40:56.902Z,55.6
2023-05-01T18:42:40.424Z,55.6
2023-05-01T18:44:23.697Z,55.6
2023-05-01T18:46:07.105Z,55.7
2023-05-01T18:47:50.492Z,55.7
2023-05-01T18:49:33.943Z,55.7
2023-05-01T18:51:17.490Z,55.7
2023-05-01T18:53:00.699Z,55.6
2023-05-01T18:54:44.405Z,55.7
2023-05-01T18:56:27.823Z,55.6
2023-05-01T18:58:11.179Z,55.6
2023-05-01T18:59:54.712Z,55.6
2023-05-01T19:01:38.025Z,55.6
2023-05-01T19:03:21.474Z,55.6
2023-05-01T19:05:04.773Z,55.6
2023-05-01T19:10:14.101Z,55.6
2023-05-01T19:11:57.404Z,55.6
2023-05-01T19:13:40.795Z,55.7
2023-05-01T19:15:24.274Z,55.7
2023-05-01T19:17:07.610Z,55.6
2023-05-01T19:18:51.076Z,55.6
2023-05-01T19:20:34.423Z,55.7
2023-05-01T19:24:00.903Z,55.7
2023-05-01T19:25:44.282Z,55.7
2023-05-01T19:27:27.657Z,55.6
2023-05-01T19:29:11.042Z,55.6
2023-05-01T19:30:54.488Z,55.6
2023-05-01T19:32:38.007Z,55.6
2023-05-01T19:34:21.229Z,55.6
2023-05-01T19:39:30.570Z,55.6
2023-05-01T19:41:13.871Z,55.6
2023-05-01T19:42:57.296Z,55.6
2023-05-01T19:44:40.727Z,55.6
2023-05-01T19:46:24.085Z,55.6
2023-05-01T19:48:07.453Z,55.6
2023-05-01T19:49:50.836Z,55.6
2023-05-01T19:53:17.322Z,55.7
2023-05-01T19:55:00.770Z,55.7
2023-05-01T19:56:44.211Z,55.7
2023-05-01T19:58:27.563Z,55.7
2023-05-01T20:00:10.973Z,55.7
2023-05-01T20:01:54.315Z,55.7
2023-05-01T20:03:37.710Z,55.7
2023-05-01T20:07:04.171Z,55.7
2023-05-01T20:08:47.554Z,55.7
2023-05-01T20:10:30.999Z,55.7
2023-05-01T20:12:14.435Z,55.7
2023-05-01T20:13:57.765Z,55.7
2023-05-01T20:15:41.211Z,55.7
2023-05-01T20:17:24.662Z,55.7
2023-05-01T20:20:51.025Z,55.7
2023-05-01T20:22:34.425Z,55.7
2023-05-01T20:24:17.828Z,55.7
2023-05-01T20:26:01.288Z,55.7
2023-05-01T20:27:44.604Z,55.7
2023-05-01T20:29:27.998Z,55.7
2023-05-01T20:31:11.503Z,55.7
2023-05-01T20:36:20.656Z,55.7
2023-05-01T20:38:04.024Z,55.6
2023-05-01T20:39:47.433Z,55.7
2023-05-01T20:41:30.850Z,55.6
2023-05-01T20:43:14.394Z,55.6
2023-05-01T20:44:57.627Z,55.6
2023-05-01T20:46:41.060Z,55.6
2023-05-01T20:51:50.362Z,55.6
2023-05-01T20:53:33.680Z,55.6
2023-05-01T20:55:17.100Z,55.6
2023-05-01T20:57:00.441Z,55.6
2023-05-01T20:58:43.849Z,55.6
2023-05-01T21:00:27.303Z,55.6
2023-05-01T21:02:10.663Z,55.6
2023-05-01T21:03:54.044Z,55.6
2023-05-01T21:07:20.492Z,55.6
2023-05-01T21:09:03.904Z,55.6
2023-05-01T21:10:47.302Z,55.6
2023-05-01T21:12:30.708Z,55.6
2023-05-01T21:14:14.087Z,55.6
2023-05-01T21:15:57.477Z,55.6
2023-05-01T21:17:40.879Z,55.6
2023-05-01T21:19:24.279Z,55.6
2023-05-01T21:21:07.990Z,55.6
2023-05-01T21:22:51.390Z,55.6
2023-05-01T21:24:34.843Z,55.6
2023-05-01T21:26:18.207Z,55.6
2023-05-01T21:28:01.564Z,55.6
2023-05-01T21:29:45.108Z,55.6
2023-05-01T21:31:28.361Z,55.6
2023-05-01T21:33:11.762Z,55.6
2023-05-01T21:34:55.517Z,55.6
2023-05-01T21:36:38.871Z,55.6
2023-05-01T21:38:22.252Z,55.6
2023-05-01T21:40:05.652Z,55.6
2023-05-01T21:41:49.119Z,55.6
2023-05-01T21:43:32.454Z,55.6
2023-05-01T21:45:15.853Z,55.7
2023-05-01T21:46:59.256Z,55.8
2023-05-01T21:50:25.770Z,55.7
2023-05-01T21:52:09.114Z,55.7
2023-05-01T21:53:52.507Z,55.7
2023-05-01T21:55:35.928Z,55.8
2023-05-01T21:57:19.356Z,55.8
2023-05-01T21:59:02.757Z,55.8
2023-05-01T22:00:46.136Z,55.7
2023-05-01T22:04:12.590Z,55.7
2023-05-01T22:05:55.951Z,55.7
2023-05-01T22:07:39.388Z,55.7
2023-05-01T22:09:22.778Z,55.6
2023-05-01T22:11:06.211Z,55.6
2023-05-01T22:12:49.615Z,55.6
2023-05-01T22:14:32.962Z,55.6
2023-05-01T22:19:42.181Z,55.7
2023-05-01T22:21:25.672Z,55.6
2023-05-01T22:23:08.995Z,55.6
2023-05-01T22:24:52.393Z,55.6
2023-05-01T22:26:35.786Z,55.6
2023-05-01T22:28:19.321Z,55.6
2023-05-01T22:30:02.578Z,55.6
2023-05-01T22:33:29.041Z,55.6
2023-05-01T22:35:12.592Z,55.6
2023-05-01T22:36:55.842Z,55.5
2023-05-01T22:38:39.274Z,55.5
2023-05-01T22:40:22.642Z,55.5
2023-05-01T22:42:06.099Z,55.6
2023-05-01T22:43:49.428Z,55.4
2023-05-01T22:48:58.678Z,54.9
2023-05-01T22:50:42.066Z,54.7
2023-05-01T22:52:25.489Z,54.6
2023-05-01T22:54:08.977Z,54.6
2023-05-01T22:55:52.362Z,54.5
2023-05-01T22:57:35.664Z,54.6
2023-05-01T22:59:19.126Z,54.7
2023-05-01T23:02:45.507Z,54.6
2023-05-01T23:04:28.924Z,54.6
2023-05-01T23:06:12.320Z,54.6
2023-05-01T23:07:55.726Z,54.6
2023-05-01T23:09:39.176Z,54.6
2023-05-01T23:11:22.531Z,54.6
2023-05-01T23:13:05.897Z,54.5
2023-05-01T23:14:49.429Z,54.5
2023-05-01T23:18:15.780Z,54.5
2023-05-01T23:19:59.336Z,54.4
2023-05-01T23:21:42.565Z,54.4
2023-05-01T23:23:25.990Z,54.4
2023-05-01T23:25:09.381Z,54.4
2023-05-01T23:26:52.762Z,54.4
2023-05-01T23:28:36.151Z,54.4
2023-05-01T23:32:02.634Z,54.3
2023-05-01T23:33:46.100Z,54.3
2023-05-01T23:35:29.468Z,54.3
2023-05-01T23:37:12.846Z,54.3
2023-05-01T23:38:56.266Z,54.2
2023-05-01T23:40:39.615Z,54.2
2023-05-01T23:42:23.085Z,54.2
2023-05-01T23:47:32.283Z,54.1
2023-05-01T23:49:15.678Z,54.1
2023-05-01T23:50:59.128Z,54.1
2023-05-01T23:52:42.448Z,54.1
2023-05-01T23:54:25.861Z,54.1
2023-05-01T23:56:09.259Z,54.1
2023-05-01T23:57:52.645Z,54.1
